Time;durP1;ratioP1;P1;durP2;ratioP2;P2;SDS_P1;SDS_P2;PMS_P1;PMS_P2;Temp;Humidity;BMP_temperature;BMP_pressure;BME280_temperature;BME280_humidity;BME280_pressure;Samples;Min_cycle;Max_cycle;Signal;HPM_P1;HPM_P2
2023/07/10 00:01:19;;;;;;;11.13;9.20;;;;;;;;;;739603;187;932807;-55
2023/07/10 00:03:45;;;;;;;14.93;11.47;;;;;;;;;;735377;188;920660;-56
2023/07/10 00:06:10;;;;;;;12.95;10.57;;;;;;;;;;742411;187;913971;-56
2023/07/10 00:08:36;;;;;;;15.70;11.50;;;;;;;;;;743335;187;866618;-57
2023/07/10 00:11:02;;;;;;;15.20;11.10;;;;;;;;;;733778;189;921697;-57
2023/07/10 00:13:28;;;;;;;13.33;8.90;;;;;;;;;;745170;187;913789;-56
2023/07/10 00:15:54;;;;;;;9.77;8.00;;;;;;;;;;739123;189;917825;-57
2023/07/10 00:18:20;;;;;;;9.00;7.97;;;;;;;;;;738457;188;919215;-56
2023/07/10 00:20:46;;;;;;;10.30;8.13;;;;;;;;;;716471;194;930720;-57
2023/07/10 00:23:12;;;;;;;9.90;8.43;;;;;;;;;;736317;188;919998;-56
2023/07/10 00:25:38;;;;;;;14.03;8.80;;;;;;;;;;742180;187;923981;-55
2023/07/10 00:28:07;;;;;;;9.60;8.10;;;;;;;;;;736420;189;919309;-55
2023/07/10 00:30:31;;;;;;;12.47;9.10;;;;;;;;;;735476;189;873631;-56
2023/07/10 00:32:56;;;;;;;8.73;7.83;;;;;;;;;;735610;188;919635;-56
2023/07/10 00:35:22;;;;;;;10.37;8.30;;;;;;;;;;730337;189;916779;-56
2023/07/10 00:37:49;;;;;;;8.47;7.60;;;;;;;;;;742143;187;920853;-56
2023/07/10 00:40:18;;;;;;;12.60;8.80;;;;;;;;;;741113;187;916239;-55
2023/07/10 00:42:44;;;;;;;8.30;7.50;;;;;;;;;;737302;187;912669;-54
2023/07/10 00:45:10;;;;;;;10.10;8.93;;;;;;;;;;738383;188;897835;-56
2023/07/10 00:47:36;;;;;;;10.00;8.10;;;;;;;;;;741248;189;918586;-56
2023/07/10 00:50:02;;;;;;;10.63;9.00;;;;;;;;;;712833;195;920012;-56
2023/07/10 00:52:28;;;;;;;12.60;8.83;;;;;;;;;;731495;188;919375;-55
2023/07/10 00:54:54;;;;;;;10.80;8.10;;;;;;;;;;736993;188;918544;-55
2023/07/10 00:57:22;;;;;;;13.93;8.40;;;;;;;;;;734888;189;919602;-55
2023/07/10 00:59:48;;;;;;;17.60;8.97;;;;;;;;;;732855;189;918580;-55
2023/07/10 01:02:17;;;;;;;10.50;9.37;;;;;;;;;;737206;188;919500;-56
2023/07/10 01:04:43;;;;;;;10.20;9.20;;;;;;;;;;743355;185;921780;-55
2023/07/10 01:07:08;;;;;;;12.93;9.50;;;;;;;;;;736825;187;917068;-56
2023/07/10 01:09:34;;;;;;;10.10;8.83;;;;;;;;;;740289;187;911235;-56
2023/07/10 01:12:03;;;;;;;10.10;9.10;;;;;;;;;;740779;188;919482;-56
2023/07/10 01:14:26;;;;;;;9.03;8.00;;;;;;;;;;742974;187;912397;-56
2023/07/10 01:16:52;;;;;;;12.40;10.10;;;;;;;;;;739398;188;850383;-56
2023/07/10 01:19:18;;;;;;;14.93;11.13;;;;;;;;;;740455;188;853907;-55
2023/07/10 01:21:43;;;;;;;15.30;10.83;;;;;;;;;;738745;188;919780;-55
2023/07/10 01:24:09;;;;;;;14.73;9.70;;;;;;;;;;735728;186;918154;-56
2023/07/10 01:26:35;;;;;;;10.27;9.17;;;;;;;;;;741085;186;919300;-56
2023/07/10 01:29:01;;;;;;;14.80;9.63;;;;;;;;;;727514;189;820045;-57
2023/07/10 01:31:27;;;;;;;13.60;9.17;;;;;;;;;;744946;187;918489;-55
2023/07/10 01:33:55;;;;;;;11.33;9.50;;;;;;;;;;736332;188;919090;-56
2023/07/10 01:36:20;;;;;;;13.13;8.60;;;;;;;;;;743240;188;918586;-55
2023/07/10 01:38:46;;;;;;;13.98;10.10;;;;;;;;;;737657;187;918012;-57
2023/07/10 01:41:27;;;;;;;13.93;9.90;;;;;;;;;;734449;189;919626;-56
2023/07/10 01:43:53;;;;;;;11.50;8.13;;;;;;;;;;734976;187;919300;-55
2023/07/10 01:46:19;;;;;;;11.60;8.90;;;;;;;;;;740094;189;876696;-56
2023/07/10 01:48:45;;;;;;;10.60;9.10;;;;;;;;;;741137;187;918907;-55
2023/07/10 01:51:11;;;;;;;15.30;10.37;;;;;;;;;;735264;188;919481;-56
2023/07/10 01:53:37;;;;;;;14.40;10.00;;;;;;;;;;738663;187;917008;-56
2023/07/10 01:56:03;;;;;;;12.77;11.20;;;;;;;;;;747890;185;919032;-55
2023/07/10 01:58:29;;;;;;;13.10;11.67;;;;;;;;;;741455;187;919600;-56
2023/07/10 02:00:54;;;;;;;14.37;10.13;;;;;;;;;;737318;188;919958;-57
2023/07/10 02:03:20;;;;;;;12.27;10.73;;;;;;;;;;741332;188;864396;-56
2023/07/10 02:05:46;;;;;;;16.93;9.07;;;;;;;;;;735612;188;919316;-56
2023/07/10 02:08:12;;;;;;;19.23;9.83;;;;;;;;;;729078;189;935237;-56
2023/07/10 02:10:38;;;;;;;11.80;10.60;;;;;;;;;;742271;187;918989;-56
2023/07/10 02:13:04;;;;;;;15.47;11.00;;;;;;;;;;735909;189;919593;-56
2023/07/10 02:15:29;;;;;;;12.20;10.20;;;;;;;;;;734829;189;919852;-55
2023/07/10 02:17:57;;;;;;;14.10;10.10;;;;;;;;;;715527;194;918889;-56
2023/07/10 02:20:21;;;;;;;15.13;12.80;;;;;;;;;;737759;187;919226;-56
2023/07/10 02:22:47;;;;;;;12.60;10.07;;;;;;;;;;738442;184;908100;-56
2023/07/10 02:25:13;;;;;;;17.47;11.60;;;;;;;;;;740413;187;921527;-56
2023/07/10 02:27:39;;;;;;;15.83;12.27;;;;;;;;;;743575;188;819969;-57
2023/07/10 02:30:05;;;;;;;17.27;10.67;;;;;;;;;;730363;188;823337;-56
2023/07/10 02:32:31;;;;;;;14.30;10.80;;;;;;;;;;741392;187;826333;-57
2023/07/10 02:34:57;;;;;;;13.40;11.47;;;;;;;;;;740014;188;818218;-57
2023/07/10 02:37:23;;;;;;;15.88;11.32;;;;;;;;;;740533;188;823692;-56
2023/07/10 02:39:49;;;;;;;12.97;11.50;;;;;;;;;;722965;194;913968;-57
2023/07/10 02:42:14;;;;;;;13.00;11.03;;;;;;;;;;745348;186;818497;-56
2023/07/10 02:44:40;;;;;;;14.10;11.97;;;;;;;;;;739114;188;918269;-57
2023/07/10 02:47:06;;;;;;;12.70;10.57;;;;;;;;;;734825;189;916281;-57
2023/07/10 02:49:32;;;;;;;16.40;12.23;;;;;;;;;;735848;188;915321;-57
2023/07/10 02:51:58;;;;;;;16.50;12.13;;;;;;;;;;746225;187;921213;-57
2023/07/10 02:54:24;;;;;;;12.90;11.33;;;;;;;;;;737842;187;889587;-56
2023/07/10 02:56:50;;;;;;;24.83;12.02;;;;;;;;;;739039;187;918039;-57
2023/07/10 02:59:15;;;;;;;11.80;10.50;;;;;;;;;;741413;188;1126420;-57
2023/07/10 03:01:41;;;;;;;15.13;11.73;;;;;;;;;;733934;188;918441;-56
2023/07/10 03:04:07;;;;;;;14.40;11.23;;;;;;;;;;736742;188;918431;-57
2023/07/10 03:06:33;;;;;;;16.20;13.40;;;;;;;;;;737151;190;943534;-57
2023/07/10 03:08:59;;;;;;;15.00;12.50;;;;;;;;;;711234;195;862374;-56
2023/07/10 03:11:25;;;;;;;13.27;11.70;;;;;;;;;;730292;188;867863;-57
2023/07/10 03:13:50;;;;;;;15.33;10.13;;;;;;;;;;730329;188;919350;-57
2023/07/10 03:16:16;;;;;;;12.73;10.27;;;;;;;;;;738103;189;921098;-57
2023/07/10 03:18:42;;;;;;;16.00;10.67;;;;;;;;;;738000;188;819338;-57
2023/07/10 03:21:08;;;;;;;13.70;10.73;;;;;;;;;;735902;188;920639;-56
2023/07/10 03:23:34;;;;;;;13.73;10.97;;;;;;;;;;739014;189;914355;-58
2023/07/10 03:26:00;;;;;;;12.50;10.80;;;;;;;;;;742017;187;919868;-57
2023/07/10 03:28:25;;;;;;;15.13;10.37;;;;;;;;;;735798;189;920457;-56
2023/07/10 03:30:51;;;;;;;18.00;11.77;;;;;;;;;;738864;188;923992;-56
2023/07/10 03:33:17;;;;;;;14.37;10.80;;;;;;;;;;733795;189;919322;-58
2023/07/10 03:35:48;;;;;;;18.77;12.30;;;;;;;;;;738120;188;919297;-57
2023/07/10 03:38:09;;;;;;;13.73;11.90;;;;;;;;;;738241;187;918158;-57
2023/07/10 03:40:35;;;;;;;17.53;12.00;;;;;;;;;;740303;187;848723;-57
2023/07/10 03:43:01;;;;;;;18.80;11.57;;;;;;;;;;741067;187;919647;-56
2023/07/10 03:45:26;;;;;;;15.10;11.97;;;;;;;;;;734418;188;920734;-57
2023/07/10 03:47:52;;;;;;;14.50;12.93;;;;;;;;;;743736;188;919109;-57
2023/07/10 03:50:18;;;;;;;18.40;12.07;;;;;;;;;;730521;188;817606;-57
2023/07/10 03:52:44;;;;;;;16.07;12.50;;;;;;;;;;735152;189;851430;-57
2023/07/10 03:55:10;;;;;;;15.23;11.83;;;;;;;;;;737856;188;919106;-57
2023/07/10 03:57:36;;;;;;;16.30;12.03;;;;;;;;;;737179;186;918182;-56
2023/07/10 04:00:04;;;;;;;15.18;11.52;;;;;;;;;;734224;188;886536;-57
2023/07/10 04:02:28;;;;;;;17.37;12.30;;;;;;;;;;740559;188;922536;-57
2023/07/10 04:04:54;;;;;;;17.60;13.47;;;;;;;;;;734439;187;824831;-56
2023/07/10 04:07:20;;;;;;;18.77;13.17;;;;;;;;;;734243;189;920776;-57
2023/07/10 04:09:46;;;;;;;29.83;12.30;;;;;;;;;;716144;194;916598;-57
2023/07/10 04:12:11;;;;;;;14.17;11.90;;;;;;;;;;741969;187;915266;-57
2023/07/10 04:14:37;;;;;;;15.53;11.27;;;;;;;;;;737001;188;918880;-57
2023/07/10 04:17:04;;;;;;;13.80;12.03;;;;;;;;;;733410;188;919612;-56
2023/07/10 04:19:30;;;;;;;17.43;12.20;;;;;;;;;;741770;188;918199;-57
2023/07/10 04:21:56;;;;;;;15.90;12.37;;;;;;;;;;721899;191;911581;-57
2023/07/10 04:24:21;;;;;;;14.48;12.30;;;;;;;;;;733402;189;919934;-57
2023/07/10 04:26:47;;;;;;;20.65;14.15;;;;;;;;;;748379;187;912733;-57
2023/07/10 04:29:13;;;;;;;16.13;12.47;;;;;;;;;;730362;187;942065;-55
2023/07/10 04:31:39;;;;;;;14.50;12.57;;;;;;;;;;733471;189;820422;-57
2023/07/10 04:34:05;;;;;;;15.30;12.97;;;;;;;;;;714487;194;918126;-57
2023/07/10 04:36:31;;;;;;;14.10;11.67;;;;;;;;;;725618;191;919777;-56
2023/07/10 04:38:56;;;;;;;19.30;12.20;;;;;;;;;;710613;195;919627;-57
2023/07/10 04:41:22;;;;;;;12.50;11.20;;;;;;;;;;735554;189;918455;-57
2023/07/10 04:43:48;;;;;;;13.40;12.00;;;;;;;;;;743215;189;917012;-57
2023/07/10 04:46:14;;;;;;;18.00;12.07;;;;;;;;;;735914;189;916060;-56
2023/07/10 04:48:42;;;;;;;12.47;11.17;;;;;;;;;;738764;189;919912;-57
2023/07/10 04:51:09;;;;;;;13.00;11.27;;;;;;;;;;715770;196;919183;-57
2023/07/10 04:53:33;;;;;;;15.20;11.57;;;;;;;;;;720189;192;919279;-57
2023/07/10 04:55:58;;;;;;;14.67;11.50;;;;;;;;;;741243;187;817206;-57
2023/07/10 04:58:24;;;;;;;15.13;10.23;;;;;;;;;;738824;187;906201;-58
2023/07/10 05:00:54;;;;;;;12.40;10.40;;;;;;;;;;742364;188;919053;-57
2023/07/10 05:03:20;;;;;;;14.67;10.30;;;;;;;;;;739665;187;917405;-57
2023/07/10 05:05:52;;;;;;;14.80;10.63;;;;;;;;;;738374;187;919906;-57
2023/07/10 05:08:17;;;;;;;12.47;10.93;;;;;;;;;;743184;187;915280;-57
2023/07/10 05:10:43;;;;;;;13.60;11.27;;;;;;;;;;743359;188;849622;-56
2023/07/10 05:13:09;;;;;;;12.23;9.93;;;;;;;;;;735909;188;921240;-57
2023/07/10 05:15:35;;;;;;;18.27;10.80;;;;;;;;;;735225;189;917214;-57
2023/07/10 05:18:01;;;;;;;14.50;9.70;;;;;;;;;;743820;188;915988;-57
2023/07/10 05:20:27;;;;;;;15.00;11.33;;;;;;;;;;733942;187;915549;-56
2023/07/10 05:22:52;;;;;;;14.80;10.10;;;;;;;;;;735308;188;916014;-57
2023/07/10 05:25:19;;;;;;;10.80;9.70;;;;;;;;;;737978;188;917975;-58
2023/07/10 05:27:44;;;;;;;13.47;10.10;;;;;;;;;;717606;192;917810;-57
2023/07/10 05:30:10;;;;;;;12.47;9.80;;;;;;;;;;740752;187;919324;-57
2023/07/10 05:32:36;;;;;;;12.13;10.60;;;;;;;;;;742820;187;919849;-57
2023/07/10 05:35:02;;;;;;;13.03;9.60;;;;;;;;;;738952;184;918768;-57
2023/07/10 05:37:28;;;;;;;21.40;11.23;;;;;;;;;;736952;187;919473;-57
2023/07/10 05:39:54;;;;;;;15.13;11.00;;;;;;;;;;735732;189;919387;-57
2023/07/10 05:42:20;;;;;;;18.60;12.70;;;;;;;;;;742955;189;922236;-57
2023/07/10 05:44:45;;;;;;;13.30;10.30;;;;;;;;;;737321;189;922821;-57
2023/07/10 05:47:11;;;;;;;16.30;11.67;;;;;;;;;;713679;195;916862;-57
2023/07/10 05:49:37;;;;;;;15.53;11.70;;;;;;;;;;742518;188;816599;-58
2023/07/10 05:52:03;;;;;;;15.70;12.00;;;;;;;;;;735588;188;919462;-57
2023/07/10 05:54:29;;;;;;;12.60;11.20;;;;;;;;;;729230;188;919718;-56
2023/07/10 05:56:55;;;;;;;17.50;12.17;;;;;;;;;;740485;187;918875;-56
2023/07/10 05:59:21;;;;;;;13.03;11.67;;;;;;;;;;737611;187;918734;-58
2023/07/10 06:01:47;;;;;;;10.83;9.73;;;;;;;;;;733711;188;918810;-58
2023/07/10 06:04:12;;;;;;;20.60;11.40;;;;;;;;;;733937;189;919134;-58
2023/07/10 06:06:38;;;;;;;11.43;10.20;;;;;;;;;;723599;195;768230;-56
2023/07/10 06:09:04;;;;;;;11.73;9.10;;;;;;;;;;744656;187;919764;-57
2023/07/10 06:11:30;;;;;;;11.53;8.10;;;;;;;;;;740720;188;919567;-58
2023/07/10 06:13:56;;;;;;;12.73;9.30;;;;;;;;;;743570;188;919549;-58
2023/07/10 06:16:22;;;;;;;11.93;8.97;;;;;;;;;;737875;188;919587;-58
2023/07/10 06:18:47;;;;;;;12.00;8.33;;;;;;;;;;735339;189;919488;-57
2023/07/10 06:21:13;;;;;;;10.53;9.10;;;;;;;;;;738215;188;925933;-57
2023/07/10 06:23:39;;;;;;;12.00;8.90;;;;;;;;;;735984;188;917662;-58
2023/07/10 06:26:05;;;;;;;10.17;8.90;;;;;;;;;;734506;188;918779;-58
2023/07/10 06:28:31;;;;;;;11.03;8.77;;;;;;;;;;735275;188;919555;-58
2023/07/10 06:30:57;;;;;;;10.60;8.60;;;;;;;;;;738159;188;918348;-58
2023/07/10 06:33:22;;;;;;;11.10;7.53;;;;;;;;;;736506;188;919479;-57
2023/07/10 06:35:48;;;;;;;8.73;7.83;;;;;;;;;;715249;195;919353;-58
2023/07/10 06:38:14;;;;;;;9.93;7.63;;;;;;;;;;711513;196;919158;-58
2023/07/10 06:40:40;;;;;;;9.30;8.13;;;;;;;;;;727769;188;919236;-58
2023/07/10 06:43:06;;;;;;;10.27;8.03;;;;;;;;;;735098;188;937891;-58
2023/07/10 06:45:32;;;;;;;9.17;7.40;;;;;;;;;;742012;188;919553;-57
2023/07/10 06:47:57;;;;;;;11.50;8.47;;;;;;;;;;716000;194;921909;-57
2023/07/10 06:50:23;;;;;;;10.23;7.70;;;;;;;;;;717040;190;920024;-57
2023/07/10 06:52:49;;;;;;;10.10;7.90;;;;;;;;;;717149;194;919207;-58
2023/07/10 06:55:15;;;;;;;9.43;7.27;;;;;;;;;;728456;190;813220;-57
2023/07/10 06:57:41;;;;;;;11.40;8.60;;;;;;;;;;741861;187;917242;-58
2023/07/10 07:00:08;;;;;;;9.17;7.80;;;;;;;;;;745274;187;620775;-59
2023/07/10 07:02:33;;;;;;;11.93;8.27;;;;;;;;;;739125;189;917861;-58
2023/07/10 07:04:59;;;;;;;11.47;7.80;;;;;;;;;;737376;188;920901;-59
2023/07/10 07:07:25;;;;;;;9.83;7.20;;;;;;;;;;729166;188;920403;-58
2023/07/10 07:09:50;;;;;;;11.87;8.40;;;;;;;;;;742816;189;918223;-57
2023/07/10 07:12:16;;;;;;;9.67;7.57;;;;;;;;;;733173;187;821037;-57
2023/07/10 07:14:42;;;;;;;16.93;7.57;;;;;;;;;;708965;195;829038;-57
2023/07/10 07:17:09;;;;;;;13.02;8.27;;;;;;;;;;714670;194;818823;-59
2023/07/10 07:19:35;;;;;;;11.33;7.37;;;;;;;;;;736697;188;919518;-58
2023/07/10 07:22:00;;;;;;;10.90;7.73;;;;;;;;;;732822;188;919297;-58
2023/07/10 07:24:26;;;;;;;13.43;9.20;;;;;;;;;;732744;188;915083;-58
2023/07/10 07:26:52;;;;;;;9.07;7.63;;;;;;;;;;744416;188;919595;-58
2023/07/10 07:29:18;;;;;;;9.30;7.30;;;;;;;;;;738518;188;919319;-59
2023/07/10 07:31:44;;;;;;;9.73;7.80;;;;;;;;;;729188;188;918935;-58
2023/07/10 07:34:10;;;;;;;11.13;8.00;;;;;;;;;;744729;187;817446;-58
2023/07/10 07:36:37;;;;;;;10.23;7.27;;;;;;;;;;735687;189;915234;-59
2023/07/10 07:39:02;;;;;;;7.57;6.67;;;;;;;;;;740902;187;813057;-58
2023/07/10 07:41:27;;;;;;;10.37;7.53;;;;;;;;;;739846;188;874910;-59
2023/07/10 07:43:53;;;;;;;7.17;6.20;;;;;;;;;;735624;188;817172;-58
2023/07/10 07:46:19;;;;;;;8.70;6.73;;;;;;;;;;735269;188;814760;-60
2023/07/10 07:48:45;;;;;;;8.10;7.10;;;;;;;;;;736517;188;717723;-57
2023/07/10 07:51:11;;;;;;;7.77;6.87;;;;;;;;;;747969;187;877146;-62
2023/07/10 07:53:36;;;;;;;13.30;7.80;;;;;;;;;;735342;188;918405;-59
2023/07/10 07:56:02;;;;;;;8.70;6.50;;;;;;;;;;731122;188;923737;-58
2023/07/10 07:58:28;;;;;;;9.13;6.70;;;;;;;;;;735183;189;915414;-60
2023/07/10 08:00:54;;;;;;;9.47;7.30;;;;;;;;;;736867;189;916848;-59
2023/07/10 08:03:20;;;;;;;12.83;6.87;;;;;;;;;;737630;189;919913;-59
2023/07/10 08:05:46;;;;;;;12.47;8.03;;;;;;;;;;739143;189;920524;-58
2023/07/10 08:08:11;;;;;;;8.83;7.47;;;;;;;;;;735446;189;913625;-57
2023/07/10 08:10:37;;;;;;;8.80;7.53;;;;;;;;;;713630;194;913849;-59
2023/07/10 08:13:04;;;;;;;13.10;8.07;;;;;;;;;;726195;190;961181;-60
2023/07/10 08:15:29;;;;;;;10.07;7.10;;;;;;;;;;739299;187;919744;-59
2023/07/10 08:17:55;;;;;;;10.20;6.50;;;;;;;;;;731117;187;918774;-58
2023/07/10 08:20:21;;;;;;;6.23;5.53;;;;;;;;;;738452;187;939523;-59
2023/07/10 08:22:46;;;;;;;7.70;5.70;;;;;;;;;;740664;188;922048;-58
2023/07/10 08:25:12;;;;;;;9.33;6.00;;;;;;;;;;733950;187;921608;-59
2023/07/10 08:27:38;;;;;;;7.77;5.77;;;;;;;;;;738280;187;916964;-58
2023/07/10 08:30:04;;;;;;;6.70;5.23;;;;;;;;;;742469;189;822014;-58
2023/07/10 08:32:30;;;;;;;7.80;6.30;;;;;;;;;;715518;194;919237;-58
2023/07/10 08:34:56;;;;;;;8.73;6.70;;;;;;;;;;722695;194;921698;-59
2023/07/10 08:37:22;;;;;;;8.77;5.47;;;;;;;;;;718629;195;920043;-59
2023/07/10 08:39:48;;;;;;;6.90;5.67;;;;;;;;;;731688;191;918975;-58
2023/07/10 08:42:22;;;;;;;7.67;6.20;;;;;;;;;;745919;187;918921;-58
2023/07/10 08:44:48;;;;;;;7.50;5.67;;;;;;;;;;739021;188;919255;-58
2023/07/10 08:47:15;;;;;;;7.07;6.37;;;;;;;;;;741483;187;882901;-58
2023/07/10 08:49:40;;;;;;;7.60;6.37;;;;;;;;;;734695;187;921789;-57
2023/07/10 08:52:06;;;;;;;6.57;5.73;;;;;;;;;;740465;187;919572;-58
2023/07/10 08:54:32;;;;;;;11.37;6.40;;;;;;;;;;729378;189;941733;-58
2023/07/10 08:57:14;;;;;;;6.80;4.87;;;;;;;;;;745767;188;816520;-57
2023/07/10 08:59:40;;;;;;;8.90;5.47;;;;;;;;;;741958;188;915134;-58
2023/07/10 09:02:22;;;;;;;8.03;5.70;;;;;;;;;;734453;187;919547;-58
2023/07/10 09:04:48;;;;;;;6.37;5.60;;;;;;;;;;733389;187;819825;-58
2023/07/10 09:07:14;;;;;;;6.80;6.10;;;;;;;;;;740120;187;920272;-59
2023/07/10 09:09:40;;;;;;;9.90;6.90;;;;;;;;;;743189;188;839985;-58
2023/07/10 09:12:06;;;;;;;12.20;6.37;;;;;;;;;;729567;189;918435;-60
2023/07/10 09:14:47;;;;;;;25.40;7.03;;;;;;;;;;739587;185;919659;-59
2023/07/10 09:17:28;;;;;;;7.53;5.50;;;;;;;;;;740099;187;919301;-59
2023/07/10 09:19:54;;;;;;;5.70;4.93;;;;;;;;;;729460;189;919319;-60
2023/07/10 09:22:20;;;;;;;16.07;6.00;;;;;;;;;;720508;195;922210;-58
2023/07/10 09:24:46;;;;;;;8.00;6.10;;;;;;;;;;735761;189;919748;-58
2023/07/10 09:27:12;;;;;;;7.67;5.90;;;;;;;;;;715965;195;919519;-58
2023/07/10 09:29:37;;;;;;;7.13;6.07;;;;;;;;;;744284;187;918880;-58
2023/07/10 09:32:03;;;;;;;10.33;6.00;;;;;;;;;;739527;187;921692;-58
2023/07/10 09:34:29;;;;;;;7.00;6.30;;;;;;;;;;735707;188;920960;-58
2023/07/10 09:36:55;;;;;;;8.17;7.10;;;;;;;;;;732466;188;821942;-58
2023/07/10 09:39:21;;;;;;;7.87;6.77;;;;;;;;;;743037;189;861845;-57
2023/07/10 09:41:47;;;;;;;11.00;8.20;;;;;;;;;;736586;189;919573;-58
2023/07/10 09:44:16;;;;;;;7.17;6.37;;;;;;;;;;735365;188;914426;-59
2023/07/10 09:46:42;;;;;;;6.87;5.97;;;;;;;;;;715507;195;920212;-58
2023/07/10 09:49:11;;;;;;;8.20;6.33;;;;;;;;;;711359;196;916059;-59
2023/07/10 09:51:37;;;;;;;7.80;6.60;;;;;;;;;;712664;195;916772;-58
2023/07/10 09:54:06;;;;;;;13.33;6.63;;;;;;;;;;710780;195;915901;-59
2023/07/10 09:56:32;;;;;;;12.60;8.10;;;;;;;;;;736430;188;820855;-63
2023/07/10 09:58:56;;;;;;;8.07;7.07;;;;;;;;;;738757;187;811885;-58
2023/07/10 10:01:24;;;;;;;8.50;6.50;;;;;;;;;;736322;188;921206;-58
2023/07/10 10:03:50;;;;;;;8.33;6.80;;;;;;;;;;741637;188;919231;-58
2023/07/10 10:06:17;;;;;;;7.80;6.73;;;;;;;;;;712928;195;853176;-58
2023/07/10 10:08:44;;;;;;;9.20;6.23;;;;;;;;;;733507;188;919526;-58
2023/07/10 10:11:09;;;;;;;7.43;6.10;;;;;;;;;;737008;187;923528;-60
2023/07/10 10:13:35;;;;;;;8.10;7.00;;;;;;;;;;742057;189;918466;-58
2023/07/10 10:16:03;;;;;;;10.87;7.57;;;;;;;;;;737444;188;920092;-58
2023/07/10 10:18:30;;;;;;;9.93;7.50;;;;;;;;;;741319;187;917505;-60
2023/07/10 10:20:56;;;;;;;11.70;7.27;;;;;;;;;;740616;187;919641;-58
2023/07/10 10:23:22;;;;;;;9.20;7.30;;;;;;;;;;736399;188;937867;-58
2023/07/10 10:25:48;;;;;;;9.17;7.10;;;;;;;;;;728034;188;916922;-59
2023/07/10 10:28:20;;;;;;;9.57;7.67;;;;;;;;;;728368;191;919096;-59
2023/07/10 10:30:46;;;;;;;12.10;7.10;;;;;;;;;;727418;193;919370;-59
2023/07/10 10:33:14;;;;;;;10.50;6.90;;;;;;;;;;714845;193;919489;-57
2023/07/10 10:36:00;;;;;;;9.23;7.47;;;;;;;;;;718623;190;941285;-58
2023/07/10 10:38:42;;;;;;;13.50;7.63;;;;;;;;;;717967;194;919284;-58
2023/07/10 10:41:13;;;;;;;8.03;7.23;;;;;;;;;;716543;194;915619;-58
2023/07/10 10:43:42;;;;;;;13.23;8.50;;;;;;;;;;739644;187;915991;-59
2023/07/10 10:46:13;;;;;;;12.43;7.90;;;;;;;;;;743151;187;843535;-58
2023/07/10 10:48:54;;;;;;;10.80;7.37;;;;;;;;;;731488;190;919587;-58
2023/07/10 10:51:28;;;;;;;12.73;6.97;;;;;;;;;;735862;186;927684;-60
2023/07/10 10:53:54;;;;;;;12.43;6.50;;;;;;;;;;742106;187;914957;-60
2023/07/10 10:56:20;;;;;;;21.07;9.73;;;;;;;;;;736589;186;917604;-60
2023/07/10 10:58:50;;;;;;;18.53;8.23;;;;;;;;;;741019;187;822906;-59
2023/07/10 11:01:34;;;;;;;16.27;9.60;;;;;;;;;;715313;193;921089;-58
2023/07/10 11:04:02;;;;;;;17.23;8.97;;;;;;;;;;724026;191;822166;-58
2023/07/10 11:06:26;;;;;;;12.50;8.43;;;;;;;;;;714682;193;916309;-59
2023/07/10 11:08:52;;;;;;;10.60;8.10;;;;;;;;;;722017;191;916928;-59
2023/07/10 11:11:20;;;;;;;11.50;8.10;;;;;;;;;;742224;187;922219;-58
2023/07/10 11:13:46;;;;;;;9.47;7.63;;;;;;;;;;740855;187;918454;-58
2023/07/10 11:16:11;;;;;;;13.37;7.97;;;;;;;;;;735890;187;920137;-59
2023/07/10 11:18:38;;;;;;;13.47;7.80;;;;;;;;;;742984;189;919904;-59
2023/07/10 11:21:03;;;;;;;11.33;7.50;;;;;;;;;;738767;188;920031;-59
2023/07/10 11:23:35;;;;;;;11.15;9.02;;;;;;;;;;738053;188;887299;-58
2023/07/10 11:26:10;;;;;;;10.37;8.10;;;;;;;;;;735414;188;923181;-59
2023/07/10 11:28:36;;;;;;;10.10;8.00;;;;;;;;;;739943;187;941548;-59
2023/07/10 11:31:07;;;;;;;12.83;8.70;;;;;;;;;;733816;188;896817;-58
2023/07/10 11:33:33;;;;;;;11.67;7.53;;;;;;;;;;710443;194;921287;-59
2023/07/10 11:36:14;;;;;;;12.80;7.00;;;;;;;;;;736064;189;916307;-59
2023/07/10 11:38:45;;;;;;;12.47;6.80;;;;;;;;;;736790;189;624564;-59
2023/07/10 11:41:31;;;;;;;11.30;6.60;;;;;;;;;;741872;188;918169;-59
2023/07/10 11:44:03;;;;;;;11.73;5.90;;;;;;;;;;737842;188;899279;-58
2023/07/10 11:46:28;;;;;;;12.97;6.33;;;;;;;;;;742661;185;764998;-58
2023/07/10 11:48:56;;;;;;;8.17;5.83;;;;;;;;;;735124;187;921185;-57
2023/07/10 11:51:23;;;;;;;8.97;5.57;;;;;;;;;;739606;187;853773;-58
2023/07/10 11:53:49;;;;;;;12.80;6.13;;;;;;;;;;746104;187;819102;-58
2023/07/10 11:56:14;;;;;;;9.70;6.50;;;;;;;;;;744377;187;702275;-58
2023/07/10 11:58:41;;;;;;;14.90;6.40;;;;;;;;;;741555;187;816183;-58
2023/07/10 12:01:14;;;;;;;7.43;5.80;;;;;;;;;;738505;187;914673;-59
2023/07/10 12:03:40;;;;;;;7.43;5.80;;;;;;;;;;738345;188;817138;-58
2023/07/10 12:06:11;;;;;;;10.17;7.17;;;;;;;;;;741180;188;817509;-58
2023/07/10 12:08:37;;;;;;;16.90;7.30;;;;;;;;;;737211;188;920619;-58
2023/07/10 12:11:03;;;;;;;13.20;6.53;;;;;;;;;;721748;194;920026;-58
2023/07/10 12:13:30;;;;;;;12.53;6.80;;;;;;;;;;738904;187;915588;-59
2023/07/10 12:15:57;;;;;;;8.87;7.10;;;;;;;;;;744275;186;917409;-59
2023/07/10 12:18:22;;;;;;;14.30;7.90;;;;;;;;;;739908;187;919753;-62
2023/07/10 12:20:48;;;;;;;12.03;6.73;;;;;;;;;;743019;189;846901;-58
2023/07/10 12:23:13;;;;;;;14.83;6.90;;;;;;;;;;735581;188;918514;-58
2023/07/10 12:25:39;;;;;;;14.33;6.70;;;;;;;;;;735100;189;925005;-58
2023/07/10 12:28:09;;;;;;;7.93;6.37;;;;;;;;;;744564;187;917251;-58
2023/07/10 12:30:35;;;;;;;9.40;7.10;;;;;;;;;;731473;189;919012;-57
2023/07/10 12:33:01;;;;;;;14.60;7.20;;;;;;;;;;737270;185;919169;-58
2023/07/10 12:35:41;;;;;;;9.00;7.05;;;;;;;;;;738136;187;921033;-58
2023/07/10 12:38:08;;;;;;;8.95;6.43;;;;;;;;;;737958;188;923612;-58
2023/07/10 12:40:34;;;;;;;7.67;5.90;;;;;;;;;;740650;188;917884;-58
2023/07/10 12:43:06;;;;;;;8.73;6.57;;;;;;;;;;735976;188;916306;-58
2023/07/10 12:45:35;;;;;;;9.03;6.47;;;;;;;;;;735011;189;918997;-57
2023/07/10 12:48:03;;;;;;;11.47;9.00;;;;;;;;;;728037;188;919513;-58
2023/07/10 12:50:31;;;;;;;9.50;6.30;;;;;;;;;;738656;189;918912;-57
2023/07/10 12:52:56;;;;;;;33.07;9.50;;;;;;;;;;738432;188;826751;-57
2023/07/10 12:55:24;;;;;;;15.53;6.63;;;;;;;;;;734076;188;919245;-58
2023/07/10 12:57:49;;;;;;;12.10;6.70;;;;;;;;;;740127;189;918548;-58
2023/07/10 13:00:14;;;;;;;7.93;6.33;;;;;;;;;;735708;188;919053;-58
2023/07/10 13:02:42;;;;;;;12.27;7.23;;;;;;;;;;739379;187;920308;-57
2023/07/10 13:05:06;;;;;;;8.50;6.23;;;;;;;;;;732750;187;919690;-58
2023/07/10 13:07:32;;;;;;;10.97;6.70;;;;;;;;;;735972;188;918967;-58
2023/07/10 13:09:58;;;;;;;8.03;5.73;;;;;;;;;;732901;188;920569;-56
2023/07/10 13:12:23;;;;;;;6.67;5.97;;;;;;;;;;737957;188;885911;-58
2023/07/10 13:14:49;;;;;;;6.53;5.50;;;;;;;;;;739642;189;816788;-58
2023/07/10 13:17:15;;;;;;;6.83;4.90;;;;;;;;;;736496;186;822880;-57
2023/07/10 13:19:41;;;;;;;7.20;5.53;;;;;;;;;;737403;189;862492;-57
2023/07/10 13:22:10;;;;;;;19.00;5.27;;;;;;;;;;741123;188;906047;-58
2023/07/10 13:24:36;;;;;;;7.90;6.20;;;;;;;;;;737723;188;816104;-58
2023/07/10 13:27:01;;;;;;;7.17;5.40;;;;;;;;;;727342;191;818408;-58
2023/07/10 13:29:27;;;;;;;6.87;6.00;;;;;;;;;;717037;192;847324;-58
2023/07/10 13:31:53;;;;;;;10.73;6.10;;;;;;;;;;743853;188;916548;-58
2023/07/10 13:34:19;;;;;;;6.87;5.67;;;;;;;;;;734567;188;914931;-58
2023/07/10 13:36:45;;;;;;;8.13;5.77;;;;;;;;;;734016;186;918494;-58
2023/07/10 13:39:12;;;;;;;7.93;5.50;;;;;;;;;;740599;188;908011;-58
2023/07/10 13:41:38;;;;;;;9.77;5.43;;;;;;;;;;743558;187;916821;-59
2023/07/10 13:44:04;;;;;;;7.80;5.70;;;;;;;;;;735677;189;815527;-58
2023/07/10 13:46:31;;;;;;;5.30;4.80;;;;;;;;;;738288;189;917195;-59
2023/07/10 13:48:56;;;;;;;7.50;5.53;;;;;;;;;;745508;184;936041;-58
2023/07/10 13:51:22;;;;;;;7.07;5.50;;;;;;;;;;738732;187;923710;-58
2023/07/10 13:53:48;;;;;;;7.80;5.70;;;;;;;;;;735908;189;961208;-59
2023/07/10 13:56:14;;;;;;;8.43;6.50;;;;;;;;;;715179;195;915566;-58
2023/07/10 13:58:40;;;;;;;10.67;6.10;;;;;;;;;;732296;189;921293;-59
2023/07/10 14:01:06;;;;;;;7.30;6.30;;;;;;;;;;740416;188;919777;-61
2023/07/10 14:03:35;;;;;;;9.03;5.40;;;;;;;;;;741791;188;917453;-60
2023/07/10 14:05:57;;;;;;;6.60;5.30;;;;;;;;;;731887;188;918669;-59
2023/07/10 14:08:23;;;;;;;6.53;5.40;;;;;;;;;;735373;188;816712;-60
2023/07/10 14:10:50;;;;;;;7.97;6.10;;;;;;;;;;741025;189;923938;-60
2023/07/10 14:13:15;;;;;;;6.50;5.13;;;;;;;;;;732526;189;922342;-59